createdAt,value
2023-04-01T00:01:49.653Z,99002.44
2023-04-01T00:04:16.928Z,99005.94
2023-04-01T00:06:43.988Z,99006.12
2023-04-01T00:09:11.081Z,99005.53
2023-04-01T00:11:38.368Z,99022.88
2023-04-01T00:14:05.705Z,99030.88
2023-04-01T00:16:32.686Z,99011.88
2023-04-01T00:19:01.093Z,99038.00
2023-04-01T00:21:28.130Z,99021.31
2023-04-01T00:23:55.178Z,99031.97
2023-04-01T00:26:23.057Z,99039.38
2023-04-01T00:28:50.928Z,99021.25
2023-04-01T00:31:18.378Z,99026.09
2023-04-01T00:33:45.729Z,99030.38
2023-04-01T00:36:22.616Z,99042.34
2023-04-01T00:38:51.427Z,99041.59
2023-04-01T00:41:20.469Z,99050.56
2023-04-01T00:43:50.081Z,99049.53
2023-04-01T00:46:17.182Z,99056.72
2023-04-01T00:48:56.278Z,99044.88
2023-04-01T00:51:28.744Z,99025.41
2023-04-01T00:53:59.013Z,99043.38
2023-04-01T00:56:33.945Z,99043.31
2023-04-01T00:59:25.895Z,99033.69
2023-04-01T01:01:53.626Z,98997.38
2023-04-01T01:04:29.203Z,99024.91
2023-04-01T01:07:21.214Z,99028.50
2023-04-01T01:09:57.014Z,99034.84
2023-04-01T01:12:36.225Z,99032.28
2023-04-01T01:15:03.058Z,99024.47
2023-04-01T01:17:41.921Z,99022.81
2023-04-01T01:20:35.460Z,99026.44
2023-04-01T01:23:43.189Z,99029.28
2023-04-01T01:26:48.056Z,99016.31
2023-04-01T01:29:45.786Z,99012.28
2023-04-01T01:32:31.806Z,99025.16
2023-04-01T01:35:25.515Z,99019.00
2023-04-01T01:37:57.986Z,99027.19
2023-04-01T01:40:27.823Z,99009.69
2023-04-01T01:42:59.254Z,99002.13
2023-04-01T01:45:28.117Z,99006.81
2023-04-01T01:47:57.572Z,99018.28
2023-04-01T01:50:27.241Z,99021.41
2023-04-01T01:53:08.459Z,99015.94
2023-04-01T01:55:38.142Z,99000.63
2023-04-01T01:58:21.020Z,99023.13
2023-04-01T02:00:58.983Z,99032.91
2023-04-01T02:03:28.149Z,99016.28
2023-04-01T02:05:57.882Z,99037.59
2023-04-01T02:08:52.848Z,99028.62
2023-04-01T02:11:27.139Z,99007.84
2023-04-01T02:14:03.931Z,99005.97
2023-04-01T02:16:53.643Z,99024.06
2023-04-01T02:19:23.986Z,99024.47
2023-04-01T02:21:55.383Z,99020.19
2023-04-01T02:24:25.901Z,99026.09
2023-04-01T02:26:53.522Z,99015.66
2023-04-01T02:29:26.162Z,98986.69
2023-04-01T02:31:54.576Z,98995.81
2023-04-01T02:34:23.818Z,99000.25
2023-04-01T02:36:51.381Z,98994.59
2023-04-01T02:39:19.392Z,98999.56
2023-04-01T02:41:47.173Z,98998.38
2023-04-01T02:44:16.248Z,99002.66
2023-04-01T02:46:43.830Z,99003.75
2023-04-01T02:49:11.910Z,99008.50
2023-04-01T02:51:39.205Z,99004.34
2023-04-01T02:54:06.338Z,98999.50
2023-04-01T02:56:33.334Z,98984.81
2023-04-01T02:59:00.371Z,98996.19
2023-04-01T03:01:27.558Z,99000.28
2023-04-01T03:03:54.911Z,99000.41
2023-04-01T03:06:22.551Z,98989.97
2023-04-01T03:08:49.522Z,99000.25
2023-04-01T03:11:17.453Z,98996.00
2023-04-01T03:13:44.635Z,98989.88
2023-04-01T03:16:11.534Z,98997.25
2023-04-01T03:18:38.395Z,99014.53
2023-04-01T03:21:15.897Z,99002.44
2023-04-01T03:23:43.128Z,98999.59
2023-04-01T03:26:10.030Z,99004.41
2023-04-01T03:28:37.000Z,98989.09
2023-04-01T03:31:04.058Z,98980.59
2023-04-01T03:33:31.498Z,98989.00
2023-04-01T03:35:58.755Z,98998.06
2023-04-01T03:38:25.742Z,99001.19
2023-04-01T03:40:52.731Z,98993.16
2023-04-01T03:43:19.603Z,98981.25
2023-04-01T03:45:48.213Z,99023.31
2023-04-01T03:48:16.410Z,99016.50
2023-04-01T03:50:43.981Z,99022.41
2023-04-01T03:53:11.845Z,99020.41
2023-04-01T03:55:39.418Z,99010.56
2023-04-01T03:58:07.976Z,99035.53
2023-04-01T04:00:35.901Z,99024.16
2023-04-01T04:03:03.682Z,99019.81
2023-04-01T04:05:31.485Z,99013.78
2023-04-01T04:07:58.717Z,99041.25
2023-04-01T04:10:26.358Z,99051.53
2023-04-01T04:12:53.826Z,99038.53
2023-04-01T04:15:20.667Z,99044.25
2023-04-01T04:17:48.463Z,99030.22
2023-04-01T04:20:16.128Z,99052.22
2023-04-01T04:22:43.712Z,99031.50
2023-04-01T04:25:10.671Z,99043.09
2023-04-01T04:27:37.822Z,99041.63
2023-04-01T04:30:06.994Z,99033.94
2023-04-01T04:32:34.041Z,99035.03
2023-04-01T04:35:01.033Z,99040.34
2023-04-01T04:37:28.302Z,99040.50
2023-04-01T04:39:55.613Z,99026.84
2023-04-01T04:42:22.625Z,99040.66
2023-04-01T04:44:49.589Z,99043.16
2023-04-01T04:47:16.526Z,99022.56
2023-04-01T04:49:43.657Z,99011.41
2023-04-01T04:52:10.915Z,99027.03
2023-04-01T04:54:37.831Z,99027.78
2023-04-01T04:57:05.110Z,99031.34
2023-04-01T04:59:32.510Z,99014.00
2023-04-01T05:01:59.565Z,99028.88
2023-04-01T05:04:26.478Z,99041.78
2023-04-01T05:06:53.339Z,99019.94
2023-04-01T05:09:20.665Z,99040.59
2023-04-01T05:11:47.932Z,99021.28
2023-04-01T05:14:17.266Z,99020.44
2023-04-01T05:16:44.757Z,99038.34
2023-04-01T05:19:11.982Z,99048.78
2023-04-01T05:21:38.823Z,99026.84
2023-04-01T05:24:10.718Z,99032.91
2023-04-01T05:26:38.359Z,99035.53
2023-04-01T05:29:05.996Z,99060.59
2023-04-01T05:31:33.047Z,99046.41
2023-04-01T05:34:00.180Z,99026.22
2023-04-01T05:36:27.049Z,99034.91
2023-04-01T05:38:57.429Z,99033.72
2023-04-01T05:41:24.324Z,99042.97
2023-04-01T05:43:51.389Z,99028.22
2023-04-01T05:46:18.429Z,99042.59
2023-04-01T05:48:46.031Z,99052.94
2023-04-01T05:51:15.718Z,99045.84
2023-04-01T05:53:43.636Z,99041.97
2023-04-01T05:56:11.027Z,99034.47
2023-04-01T05:58:38.622Z,99054.81
2023-04-01T06:01:14.132Z,99042.19
2023-04-01T06:03:43.880Z,99051.19
2023-04-01T06:06:29.332Z,99057.66
2023-04-01T06:08:58.564Z,99036.28
2023-04-01T06:11:44.213Z,99049.00
2023-04-01T06:14:20.488Z,99057.06
2023-04-01T06:17:12.526Z,99059.16
2023-04-01T06:20:06.209Z,99056.78
2023-04-01T06:23:11.496Z,99051.00
2023-04-01T06:26:00.953Z,99042.88
2023-04-01T06:28:56.074Z,99050.63
2023-04-01T06:31:40.060Z,99048.72
2023-04-01T06:34:07.707Z,99043.34
2023-04-01T06:36:51.636Z,99045.25
2023-04-01T06:39:34.185Z,99053.34
2023-04-01T06:42:25.988Z,99051.59
2023-04-01T06:45:19.868Z,99051.50
2023-04-01T06:47:59.588Z,99053.28
2023-04-01T06:50:48.229Z,99051.81
2023-04-01T06:53:43.548Z,99055.16
2023-04-01T06:56:15.100Z,99050.50
2023-04-01T06:58:54.204Z,99042.28
2023-04-01T07:01:45.491Z,99043.72
2023-04-01T07:04:19.126Z,99058.81
2023-04-01T07:06:57.756Z,99050.72
2023-04-01T07:09:40.574Z,99050.16
2023-04-01T07:12:20.013Z,99048.13
2023-04-01T07:14:50.866Z,99055.34
2023-04-01T07:17:28.852Z,99037.78
2023-04-01T07:19:58.837Z,99053.88
2023-04-01T07:22:37.100Z,99064.75
2023-04-01T07:25:19.798Z,99055.56
2023-04-01T07:27:47.557Z,99058.13
2023-04-01T07:30:20.618Z,99057.28
2023-04-01T07:32:55.700Z,99054.84
2023-04-01T07:35:37.332Z,99062.69
2023-04-01T07:38:07.461Z,99064.22
2023-04-01T07:40:51.504Z,99052.09
2023-04-01T07:43:46.148Z,99068.94
2023-04-01T07:46:19.048Z,99060.00
2023-04-01T07:48:59.502Z,99060.81
2023-04-01T07:51:47.018Z,99057.28
2023-04-01T07:54:27.408Z,99054.47
2023-04-01T07:57:18.117Z,99050.00
2023-04-01T08:00:15.549Z,99064.94
2023-04-01T08:03:02.740Z,99039.75
2023-04-01T08:05:43.956Z,99066.09
2023-04-01T08:08:26.360Z,99065.88
2023-04-01T08:11:02.740Z,99075.19
2023-04-01T08:13:52.699Z,99073.56
2023-04-01T08:16:31.974Z,99072.78
2023-04-01T08:19:15.648Z,99070.03
2023-04-01T08:21:46.242Z,99064.91
2023-04-01T08:24:44.368Z,99069.41
2023-04-01T08:27:33.889Z,99069.31
2023-04-01T08:30:05.409Z,99048.25
2023-04-01T08:32:44.956Z,99066.47
2023-04-01T08:35:32.086Z,99059.56
2023-04-01T08:38:07.277Z,99080.78
2023-04-01T08:40:53.208Z,99076.78
2023-04-01T08:43:43.822Z,99072.81
2023-04-01T08:46:41.291Z,99077.31
2023-04-01T08:49:20.456Z,99082.09
2023-04-01T08:52:13.204Z,99074.13
2023-04-01T08:55:26.546Z,99069.84
2023-04-01T08:57:59.296Z,99070.25
2023-04-01T09:00:49.229Z,99084.78
2023-04-01T09:03:56.692Z,99066.22
2023-04-01T09:06:26.957Z,99070.75
2023-04-01T09:09:10.871Z,99068.38
2023-04-01T09:12:17.013Z,99067.03
2023-04-01T09:14:43.951Z,99066.56
2023-04-01T09:17:45.475Z,99072.06
2023-04-01T09:33:06.840Z,99067.88
2023-04-01T09:35:55.504Z,99056.19
2023-04-01T09:38:38.520Z,99064.56
2023-04-01T09:41:14.861Z,99067.53
2023-04-01T09:44:09.847Z,99063.94
2023-04-01T09:46:58.694Z,99058.25
2023-04-01T09:49:40.749Z,99063.81
2023-04-01T09:52:16.921Z,99064.84
2023-04-01T09:55:21.152Z,99071.09
2023-04-01T09:58:13.170Z,99065.59
2023-04-01T10:00:56.527Z,99070.56
2023-04-01T10:03:38.938Z,99063.81
2023-04-01T10:06:15.064Z,99068.94
2023-04-01T10:08:53.336Z,99078.25
2023-04-01T10:11:34.370Z,99070.44
2023-04-01T10:14:32.719Z,99062.19
2023-04-01T10:17:23.376Z,99086.97
2023-04-01T10:20:21.650Z,99083.38
2023-04-01T10:23:19.716Z,99085.84
2023-04-01T10:26:10.893Z,99062.13
2023-04-01T10:28:54.805Z,99082.81
2023-04-01T10:31:56.875Z,99093.94
2023-04-01T10:34:51.785Z,99094.97
2023-04-01T10:37:46.723Z,99096.34
2023-04-01T10:40:27.264Z,99099.13
2023-04-01T10:43:13.019Z,99093.13
2023-04-01T10:45:55.934Z,99091.56
2023-04-01T10:48:33.993Z,99100.53
2023-04-01T10:51:29.047Z,99096.59
2023-04-01T10:54:42.406Z,99093.00
2023-04-01T10:57:36.938Z,99084.78
2023-04-01T11:00:22.060Z,99079.31
2023-04-01T11:03:21.371Z,99077.91
2023-04-01T11:06:03.968Z,99079.59
2023-04-01T11:08:52.524Z,99070.41
2023-04-01T11:11:53.550Z,99069.59
2023-04-01T11:14:38.647Z,99065.53
2023-04-01T11:17:43.025Z,99072.63
2023-04-01T11:21:07.493Z,99073.22
2023-04-01T11:24:04.932Z,99070.47
2023-04-01T11:27:23.778Z,99063.81
2023-04-01T11:30:06.379Z,99080.31
2023-04-01T11:32:48.967Z,99071.84
2023-04-01T11:35:34.072Z,99077.41
2023-04-01T11:38:19.655Z,99068.81
2023-04-01T11:40:57.267Z,99076.06
2023-04-01T11:43:43.777Z,99072.41
2023-04-01T11:46:23.302Z,99073.66
2023-04-01T11:49:22.080Z,99057.53
2023-04-01T11:52:05.125Z,99063.69
2023-04-01T11:54:46.830Z,99074.13
2023-04-01T11:57:26.268Z,99070.41
2023-04-01T11:59:58.800Z,99078.25
2023-04-01T12:02:53.788Z,99076.84
2023-04-01T12:06:13.493Z,99083.38
2023-04-01T12:09:02.347Z,99084.66
2023-04-01T12:11:32.173Z,99080.16
2023-04-01T12:14:21.469Z,99075.50
2023-04-01T12:17:07.381Z,99068.34
2023-04-01T12:20:03.448Z,99071.59
2023-04-01T12:22:44.955Z,99064.09
2023-04-01T12:25:42.033Z,99073.88
2023-04-01T12:28:24.284Z,99070.06
2023-04-01T12:30:51.507Z,99069.66
2023-04-01T12:33:43.525Z,99065.84
2023-04-01T12:36:41.441Z,99071.06
2023-04-01T12:39:40.511Z,99066.97
2023-04-01T12:42:35.620Z,99061.22
2023-04-01T12:45:23.468Z,99065.53
2023-04-01T12:48:19.008Z,99058.59
2023-04-01T12:51:05.733Z,99062.25
2023-04-01T12:53:55.913Z,99063.91
2023-04-01T12:56:31.827Z,99048.94
2023-04-01T12:59:10.286Z,99063.44
2023-04-01T13:02:00.905Z,99038.91
2023-04-01T13:04:55.792Z,99061.59
2023-04-01T13:07:39.516Z,99046.06
2023-04-01T13:10:09.617Z,99047.28
2023-04-01T13:12:59.932Z,99051.44
2023-04-01T13:15:33.547Z,99053.44
2023-04-01T13:18:25.779Z,99040.34
2023-04-01T13:21:18.086Z,99045.88
2023-04-01T13:24:01.554Z,99033.34
2023-04-01T13:26:37.972Z,99034.56
2023-04-01T13:29:43.592Z,99043.81
2023-04-01T13:35:39.859Z,99046.47
2023-04-01T13:38:16.178Z,99051.69
2023-04-01T13:41:03.964Z,99038.94
2023-04-01T13:43:34.152Z,99045.81
2023-04-01T13:46:04.572Z,99047.19
2023-04-01T13:48:47.612Z,99044.03
2023-04-01T13:51:24.055Z,99047.47
2023-04-01T13:54:22.367Z,99052.41
2023-04-01T13:57:07.610Z,99043.25
2023-04-01T14:00:17.946Z,99037.94
2023-04-01T14:03:09.432Z,99044.03
2023-04-01T14:06:04.746Z,99037.12
2023-04-01T14:09:05.647Z,99054.84
2023-04-01T14:11:52.762Z,99053.94
2023-04-01T14:14:46.033Z,99062.00
2023-04-01T14:17:24.834Z,99056.00
2023-04-01T14:20:18.150Z,99053.59
2023-04-01T14:23:22.636Z,99025.44
2023-04-01T14:26:15.100Z,99046.75
2023-04-01T14:29:06.212Z,99038.88
2023-04-01T14:31:56.534Z,99054.72
2023-04-01T14:34:45.641Z,99049.81
2023-04-01T14:37:28.121Z,99025.06
2023-04-01T14:40:14.270Z,99041.31
2023-04-01T14:42:56.834Z,99051.62
2023-04-01T14:45:33.034Z,99045.12
2023-04-01T14:48:38.915Z,99048.63
2023-04-01T14:51:40.482Z,99042.72
2023-04-01T14:54:23.646Z,99059.66
2023-04-01T14:57:02.411Z,99060.97
2023-04-01T14:59:31.508Z,99067.59
2023-04-01T15:02:14.131Z,99065.06
2023-04-01T15:05:05.904Z,99069.25
2023-04-01T15:08:06.372Z,99065.88
2023-04-01T15:10:36.751Z,99064.63
2023-04-01T15:13:20.105Z,99071.72
2023-04-01T15:16:01.268Z,99064.84
2023-04-01T15:18:57.534Z,99063.59
2023-04-01T15:22:02.849Z,99064.16
2023-04-01T15:25:03.619Z,99060.97
2023-04-01T15:27:33.475Z,99066.22
2023-04-01T15:30:12.927Z,99065.75
2023-04-01T15:32:58.367Z,99079.97
2023-04-01T15:35:28.730Z,99081.59
2023-04-01T15:37:56.123Z,99083.72
2023-04-01T15:40:38.731Z,99085.03
2023-04-01T15:43:33.207Z,99093.84
2023-04-01T15:46:18.330Z,99081.94
2023-04-01T15:48:57.742Z,99093.19
2023-04-01T15:51:40.029Z,99094.56
2023-04-01T15:54:16.656Z,99099.09
2023-04-01T15:56:46.373Z,99092.13
2023-04-01T15:59:14.082Z,99098.06
2023-04-01T16:01:59.574Z,99102.13
2023-04-01T16:04:57.834Z,99105.53
2023-04-01T16:07:25.568Z,99091.19
2023-04-01T16:10:10.651Z,99109.59
2023-04-01T16:12:59.723Z,99111.41
2023-04-01T16:15:36.760Z,99110.28
2023-04-01T16:18:28.595Z,99106.78
2023-04-01T16:21:02.310Z,99114.66
2023-04-01T16:23:51.514Z,99120.66
2023-04-01T16:26:36.540Z,99127.00
2023-04-01T16:29:17.276Z,99114.88
2023-04-01T16:32:03.325Z,99119.50
2023-04-01T16:34:37.031Z,99123.87
2023-04-01T16:37:14.016Z,99128.00
2023-04-01T16:39:54.197Z,99129.84
2023-04-01T16:42:34.209Z,99132.72
2023-04-01T16:45:19.089Z,99132.13
2023-04-01T16:47:55.475Z,99134.28
2023-04-01T16:50:28.639Z,99140.31
2023-04-01T16:53:13.088Z,99142.56
2023-04-01T16:55:54.869Z,99126.97
2023-04-01T16:58:41.246Z,99124.69
2023-04-01T17:01:16.314Z,99122.34
2023-04-01T17:03:50.680Z,99139.34
2023-04-01T17:06:30.640Z,99145.72
2023-04-01T17:09:23.388Z,99162.22
2023-04-01T17:11:59.476Z,99153.63
2023-04-01T17:15:03.606Z,99158.19
2023-04-01T17:17:37.625Z,99166.66
2023-04-01T17:20:08.778Z,99163.13
2023-04-01T17:23:00.582Z,99168.22
2023-04-01T17:26:08.800Z,99156.22
2023-04-01T17:28:43.519Z,99160.28
2023-04-01T17:31:33.034Z,99168.81
2023-04-01T17:34:42.450Z,99176.25
2023-04-01T17:37:33.465Z,99165.34
2023-04-01T17:40:33.521Z,99167.66
2023-04-01T17:43:34.906Z,99168.50
2023-04-01T17:46:27.193Z,99165.44
2023-04-01T17:49:22.142Z,99172.72
2023-04-01T17:51:59.057Z,99172.16
2023-04-01T17:55:00.463Z,99179.78
2023-04-01T17:57:34.506Z,99185.37
2023-04-01T18:00:15.080Z,99186.53
2023-04-01T18:02:57.920Z,99183.94
2023-04-01T18:05:53.320Z,99189.41
2023-04-01T18:08:46.236Z,99177.66
2023-04-01T18:11:41.062Z,99201.34
2023-04-01T18:14:28.088Z,99205.28
2023-04-01T18:17:29.124Z,99209.03
2023-04-01T18:20:24.945Z,99188.41
2023-04-01T18:23:00.165Z,99208.34
2023-04-01T18:25:39.888Z,99217.66
2023-04-01T18:28:22.341Z,99201.31
2023-04-01T18:31:19.853Z,99224.25
2023-04-01T18:34:22.175Z,99224.25
2023-04-01T18:36:57.045Z,99230.97
2023-04-01T18:39:54.569Z,99228.31
2023-04-01T18:42:42.818Z,99219.09
2023-04-01T18:45:29.567Z,99227.31
2023-04-01T18:48:22.801Z,99229.66
2023-04-01T18:50:59.047Z,99233.28
2023-04-01T18:53:32.220Z,99217.84
2023-04-01T18:56:04.278Z,99241.22
2023-04-01T18:58:55.208Z,99236.97
2023-04-01T19:01:41.394Z,99230.09
2023-04-01T19:04:35.093Z,99246.66
2023-04-01T19:07:24.899Z,99242.31
2023-04-01T19:09:54.025Z,99248.09
2023-04-01T19:12:49.530Z,99243.84
2023-04-01T19:15:36.744Z,99247.63
2023-04-01T19:18:35.030Z,99238.37
2023-04-01T19:21:21.437Z,99236.13
2023-04-01T19:24:22.271Z,99244.97
2023-04-01T19:27:19.556Z,99244.44
2023-04-01T19:30:00.156Z,99234.22
2023-04-01T19:32:33.964Z,99248.16
2023-04-01T19:35:37.107Z,99255.44
2023-04-01T19:38:13.877Z,99258.97
2023-04-01T19:41:06.170Z,99246.97
2023-04-01T19:43:42.924Z,99243.69
2023-04-01T19:46:29.071Z,99248.34
2023-04-01T19:49:06.063Z,99267.78
2023-04-01T19:51:47.197Z,99269.66
2023-04-01T19:54:44.832Z,99272.41
2023-04-01T19:57:27.888Z,99265.81
2023-04-01T20:00:09.795Z,99275.75
2023-04-01T20:03:04.976Z,99275.88
2023-04-01T20:05:48.162Z,99275.97
2023-04-01T20:08:30.592Z,99272.75
2023-04-01T20:11:20.745Z,99276.25
2023-04-01T20:13:57.767Z,99273.72
2023-04-01T20:16:40.093Z,99272.81
2023-04-01T20:19:11.764Z,99262.34
2023-04-01T20:21:48.200Z,99275.56
2023-04-01T20:24:16.300Z,99275.69
2023-04-01T20:27:01.997Z,99278.41
2023-04-01T20:30:07.260Z,99280.03
2023-04-01T20:32:54.958Z,99282.72
2023-04-01T20:35:39.007Z,99286.22
2023-04-01T20:38:34.103Z,99295.53
2023-04-01T20:41:14.664Z,99297.84
2023-04-01T20:44:07.356Z,99278.88
2023-04-01T20:46:53.409Z,99288.09
2023-04-01T20:49:42.335Z,99296.34
2023-04-01T20:52:23.891Z,99294.06
2023-04-01T20:55:19.483Z,99298.88
2023-04-01T20:58:38.868Z,99296.69
2023-04-01T21:01:12.385Z,99303.91
2023-04-01T21:04:10.576Z,99301.38
2023-04-01T21:06:45.065Z,99301.41
2023-04-01T21:09:50.419Z,99304.53
2023-04-01T21:12:41.154Z,99302.59
2023-04-01T21:15:22.945Z,99308.97
2023-04-01T21:18:12.364Z,99310.97
2023-04-01T21:21:07.643Z,99308.41
2023-04-01T21:23:55.758Z,99302.69
2023-04-01T21:26:44.572Z,99326.31
2023-04-01T21:29:45.053Z,99312.09
2023-04-01T21:32:33.929Z,99318.47
2023-04-01T21:35:25.979Z,99319.59
2023-04-01T21:38:03.854Z,99325.09
2023-04-01T21:40:57.617Z,99327.81
2023-04-01T21:44:00.197Z,99319.03
2023-04-01T21:46:56.228Z,99316.53
2023-04-01T21:49:44.984Z,99323.53
2023-04-01T21:52:44.584Z,99331.31
2023-04-01T21:55:30.740Z,99343.00
2023-04-01T21:58:19.280Z,99343.53
2023-04-01T22:01:14.160Z,99337.37
2023-04-01T22:03:58.646Z,99337.72
2023-04-01T22:06:47.867Z,99325.66
2023-04-01T22:09:36.282Z,99332.84
2023-04-01T22:12:16.145Z,99335.59
2023-04-01T22:14:54.072Z,99350.19
2023-04-01T22:17:37.738Z,99349.28
2023-04-01T22:20:17.014Z,99347.81
2023-04-01T22:23:21.771Z,99348.78
2023-04-01T22:26:03.822Z,99358.00
2023-04-01T22:28:37.635Z,99352.81
2023-04-01T22:31:07.963Z,99349.25
2023-04-01T22:33:59.985Z,99356.50
2023-04-01T22:36:41.329Z,99346.03
2023-04-01T22:39:46.327Z,99336.81
2023-04-01T22:42:31.851Z,99363.84
2023-04-01T22:45:08.520Z,99364.72
2023-04-01T22:47:48.620Z,99363.13
2023-04-01T22:50:29.183Z,99360.50
2023-04-01T22:53:16.288Z,99353.75
2023-04-01T22:55:52.843Z,99373.06
2023-04-01T22:58:31.299Z,99368.87
2023-04-01T23:01:07.558Z,99355.97
2023-04-01T23:03:42.038Z,99357.97
2023-04-01T23:06:19.973Z,99385.38
2023-04-01T23:09:01.978Z,99389.25
2023-04-01T23:11:44.450Z,99386.50
2023-04-01T23:14:30.154Z,99394.47
2023-04-01T23:17:02.919Z,99403.94
2023-04-01T23:19:43.011Z,99407.50
2023-04-01T23:22:10.418Z,99411.94
2023-04-01T23:24:48.874Z,99418.25
2023-04-01T23:27:38.618Z,99395.59
2023-04-01T23:30:52.811Z,99417.25
2023-04-01T23:33:20.297Z,99419.25
2023-04-01T23:36:06.561Z,99414.00
2023-04-01T23:38:44.968Z,99410.50
2023-04-01T23:41:29.032Z,99404.59
2023-04-01T23:44:06.912Z,99415.94
2023-04-01T23:46:36.617Z,99404.59
2023-04-01T23:49:07.753Z,99408.75
2023-04-01T23:51:40.659Z,99407.88
2023-04-01T23:55:04.260Z,99424.63
2023-04-01T23:57:34.464Z,99430.72
